WetterOnline ( https://www.wetteronline.de )

Wetter aktuell Schwerin

Aktuelles Wetter: Schwerin (68m)

6-stündlich | Neueste Meldungen
Ortszeit Temperatur Wetter
Do, 13.06. 14:00 14.6° C bewölkt
Do, 13.06. 8:00 10.3° C fast wolkenlos
Do, 13.06. 2:00 8.5° C bedeckt
Mi, 12.06. 20:00 11.4° C bedeckt
Mi, 12.06. 14:00 13.1° C bewölkt
Mi, 12.06. 8:00 11.3° C wolkig
Mi, 12.06. 2:00 8.8° C bedeckt
Di, 11.06. 20:00 12.5° C leicht bewölkt
Ortszeit Temperatur Wetter
Do, 13.06. 18:00 14.7° C bedeckt
Do, 13.06. 17:50 14.7° C bedeckt
Do, 13.06. 17:40 15.0° C bedeckt
Do, 13.06. 17:30 15.2° C bewölkt
Do, 13.06. 17:20 15.2° C bewölkt
Do, 13.06. 17:10 15.1° C bedeckt
Do, 13.06. 17:00 15.0° C bedeckt
Do, 13.06. 16:30 15.5° C wolkig
Do, 13.06. 16:00 15.2° C bewölkt
Do, 13.06. 15:30 14.3° C bewölkt
Do, 13.06. 15:00 14.7° C bewölkt
Ortszeit Relative Feuchte Sichtweite
Do, 13.06. 14:00 56% >70 km
Do, 13.06. 8:00 81% 55 km
Do, 13.06. 2:00 95% 50 km
Mi, 12.06. 20:00 82% 60 km
Mi, 12.06. 14:00 64% 65 km
Mi, 12.06. 8:00 82% 45 km
Mi, 12.06. 2:00 95% 30 km
Di, 11.06. 20:00 84% 55 km
Ortszeit Relative Feuchte Sichtweite
Do, 13.06. 18:00 55% 60 km
Do, 13.06. 17:50 55% -
Do, 13.06. 17:40 55% -
Do, 13.06. 17:30 55% >70 km
Do, 13.06. 17:20 55% -
Do, 13.06. 17:10 56% -
Do, 13.06. 17:00 56% 60 km
Do, 13.06. 16:30 56% 50 km
Do, 13.06. 16:00 56% 55 km
Do, 13.06. 15:30 59% 65 km
Do, 13.06. 15:00 56% 55 km
Ortszeit Niederschlagsmenge Niederschlagsart
Do, 13.06. 14:00 0.1 l/m2 in 6 Std. Regen
Do, 13.06. 8:00 0.1 l/m2 in 12 Std. -
Do, 13.06. 2:00 0.1 l/m2 in 6 Std. Regen
Mi, 12.06. 20:00 1 l/m2 in 12 Std. Regen
Mi, 12.06. 14:00 0.6 l/m2 in 6 Std. Regen
Mi, 12.06. 8:00 0.1 l/m2 in 12 Std. -
Mi, 12.06. 2:00 0.1 l/m2 in 6 Std. Regen
Di, 11.06. 20:00 2 l/m2 in 12 Std. Regen
Ortszeit Niederschlagsmenge Niederschlagsart
Do, 13.06. 18:00 0.0 l/m2 in 1 Std. -
Do, 13.06. 17:50 keine Meldung -
Do, 13.06. 17:40 keine Meldung -
Do, 13.06. 17:30 0.0 l/m2 in 30 Min -
Do, 13.06. 17:20 keine Meldung -
Do, 13.06. 17:10 keine Meldung -
Do, 13.06. 17:00 0.0 l/m2 in 1 Std. -
Do, 13.06. 16:30 0.0 l/m2 in 30 Min -
Do, 13.06. 16:00 0.0 l/m2 in 1 Std. -
Do, 13.06. 15:30 0.0 l/m2 in 30 Min -
Do, 13.06. 15:00 0.0 l/m2 in 1 Std. -
Ortszeit Stärke Spitze Richtung
km/h Bft. km/h Grad Sektor
Do, 13.06. 14:00 15 3 33 250° W
Do, 13.06. 8:00 14 3 25 240° SW
Do, 13.06. 2:00 11 2 40 230° SW
Mi, 12.06. 20:00 13 3 52 220° SW
Mi, 12.06. 14:00 19 3 46 250° W
Mi, 12.06. 8:00 18 3 29 240° SW
Mi, 12.06. 2:00 13 3 31 230° SW
Di, 11.06. 20:00 17 3 46 240° SW
Ortszeit Stärke Spitze Richtung
km/h Bft. km/h Grad Sektor
Do, 13.06. 18:00 14 3 29 240° SW
Do, 13.06. 17:50 14 3 - 240° SW
Do, 13.06. 17:40 15 3 - 250° W
Do, 13.06. 17:30 14 3 25 240° SW
Do, 13.06. 17:20 14 3 - 240° SW
Do, 13.06. 17:10 13 3 - 250° W
Do, 13.06. 17:00 14 3 29 250° W
Do, 13.06. 16:30 17 3 30 250° W
Do, 13.06. 16:00 18 3 40 240° SW
Do, 13.06. 15:30 20 4 37 250° W
Do, 13.06. 15:00 18 3 29 240° SW
Ortszeit Untergrenze Bedeckung Gattung
total tief tief mittel hoch
Do, 13.06. 14:00 1140 m 8/8 5/8 - - -
Do, 13.06. 8:00 1500 m 1/8 1/8 - - -
Do, 13.06. 2:00 3600 m 8/8 8/8 - - -
Mi, 12.06. 20:00 2100 m 8/8 8/8 - - -
Mi, 12.06. 14:00 1020 m 7/8 7/8 - - -
Mi, 12.06. 8:00 420 m 5/8 5/8 - - -
Mi, 12.06. 2:00 4500 m 8/8 8/8 - - -
Di, 11.06. 20:00 3600 m 2/8 1/8 - - -
Ortszeit Bedeckungsgrad in Achtel und Wolkenuntergrenze
Do, 13.06. 18:00 5(1380m) 8(2700m) 8(3600m)
Do, 13.06. 17:50 5(1380m) 8(2700m) 8(3600m)
Do, 13.06. 17:40 8
Do, 13.06. 17:30 7(1500m) 7(3000m) 8(3600m)
Do, 13.06. 17:20 7(1500m) 7(3000m) 8(3600m)
Do, 13.06. 17:10 8
Do, 13.06. 17:00 5(1500m) 8(2700m) 8(3000m)
Do, 13.06. 16:30 1(1080m) 8(3000m) 8(3900m)
Do, 13.06. 16:00 1(1470m) 6(1800m) 8(3300m)
Do, 13.06. 15:30 4(1200m) 7(1800m) 8(3300m)
Do, 13.06. 15:00 6(1230m) 7(1500m) 8(3600m)
Ortszeit Luftdruck NN (hPa) Tendenz (hPa in 3 Std.)
Do, 13.06. 14:00 1017 - 0,3
Do, 13.06. 8:00 1017 + 0,6
Do, 13.06. 2:00 1017 + 0,1
Mi, 12.06. 20:00 1016 + 0,2
Mi, 12.06. 14:00 1016 + 0,4
Mi, 12.06. 8:00 1015 + 0,9
Mi, 12.06. 2:00 1014 + 0,6
Di, 11.06. 20:00 1012 + 0,8
Ortszeit Luftdruck NN (hPa) Tendenz (hPa in 3 Std.)
Do, 13.06. 18:00 1016 - 0,3
Do, 13.06. 17:50 1016 keine Meldung
Do, 13.06. 17:40 1016 keine Meldung
Do, 13.06. 17:30 1016 - 0,4
Do, 13.06. 17:20 1016 keine Meldung
Do, 13.06. 17:10 1016 keine Meldung
Do, 13.06. 17:00 1016 - 0,4
Do, 13.06. 16:30 1016 - 0,4
Do, 13.06. 16:00 1016 - 0,3
Do, 13.06. 15:30 1017 - 0,2
Do, 13.06. 15:00 1017 - 0,4
Ortszeit Schneehöhe (cm)
Do, 13.06. 14:00 0
Do, 13.06. 8:00 0
Do, 13.06. 2:00 0
Mi, 12.06. 20:00 0
Mi, 12.06. 14:00 0
Mi, 12.06. 8:00 0
Mi, 12.06. 2:00 0
Di, 11.06. 20:00 0
Ortszeit Schneehöhe (cm)
Do, 13.06. 18:00 0
Do, 13.06. 17:50 0
Do, 13.06. 17:40 -
Do, 13.06. 17:30 0
Do, 13.06. 17:20 0
Do, 13.06. 17:10 -
Do, 13.06. 17:00 0
Do, 13.06. 16:30 0
Do, 13.06. 16:00 0
Do, 13.06. 15:30 0
Do, 13.06. 15:00 0
Link zu dieser Seite / Seite empfehlen

Das Wetter in ...